Flight Track Log - Related Links

Times and Time Zones

All times are in EDT time to prevent confusion due to time zone crossing. See the ASQ5261 flight status page for this flight to view local times or setup timezone preferences in your user account.

Time Position Orientation Groundspeed Altitude Reporting Facility
EDT Latitude Longitude Course Direction KTS MPH feet Rate Location/Type
Mon 12:36:23 PM 32.4572 -93.8461 340° North 173 199 900  Level Fort Worth Center
Mon 12:37:48 PM 32.5247 -93.8753 46° Northeast 215 247 4,400 2,772 Climbing Fort Worth Center
Mon 12:38:48 PM 32.5753 -93.8142 52° Northeast 249 287 7,600 2,458 Climbing Fort Worth Center
Mon 12:40:12 PM 32.6392 -93.7156 53° Northeast 303 349 10,300 1,583 Climbing Fort Worth Center
Mon 12:41:12 PM 32.6931 -93.6292 53° Northeast 308 354 11,400 1,450 Climbing Fort Worth Center
Mon 12:42:12 PM 32.7428 -93.5506 52° Northeast 328 377 13,200 1,750 Climbing Fort Worth Center
Mon 12:43:12 PM 32.8086 -93.4489 53° Northeast 340 391 14,900 1,850 Climbing Fort Worth Center
Mon 12:44:12 PM 32.8603 -93.3675 54° Northeast 352 405 16,900 1,550 Climbing Fort Worth Center
Mon 12:45:12 PM 32.9256 -93.2606 52° Northeast 352 405 18,000 1,150 Climbing Fort Worth Center
Mon 12:46:12 PM 32.9831 -93.1714 52° Northeast 364 419 19,200 1,131 Climbing Fort Worth Center
Mon 12:48:07 PM 33.1100 -92.9786 51° Northeast 393 452 21,300 1,063 Climbing Memphis Center
Mon 12:49:07 PM 33.1769 -92.8789 57° Northeast 388 447 22,300 1,000 Climbing Memphis Center
Mon 12:50:07 PM 33.2417 -92.7617 52° Northeast 388 447 23,300 800 Climbing Memphis Center
Mon 12:51:07 PM 33.3061 -92.6639 55° Northeast 388 447 23,900 600 Climbing Memphis Center
Mon 12:52:07 PM 33.3708 -92.5536 53° Northeast 393 452 24,500 600 Climbing Memphis Center
Mon 12:53:07 PM 33.4436 -92.4383 53° Northeast 406 467 25,100 600 Climbing Memphis Center
Mon 12:54:07 PM 33.5122 -92.3306 50° Northeast 412 474 25,700 600 Climbing Memphis Center
Mon 12:55:07 PM 33.5892 -92.2200 52° Northeast 410 472 26,300 600 Climbing Memphis Center
Mon 12:56:07 PM 33.6617 -92.1092 53° Northeast 415 478 26,900 350 Climbing Memphis Center
Mon 12:57:07 PM 33.7342 -91.9933 52° Northeast 420 483 27,000 50 Climbing Memphis Center
Mon 12:58:07 PM 33.8067 -91.8797 51° Northeast 426 490 27,000  Level Memphis Center
Mon 12:59:07 PM 33.8831 -91.7658 52° Northeast 432 497 27,000  Level Memphis Center
Mon 01:00:07 PM 33.9594 -91.6494 53° Northeast 437 503 27,000  Level Memphis Center
Mon 01:01:07 PM 34.0358 -91.5278 52° Northeast 442 509 27,000 -900 Level Memphis Center
Mon 01:02:07 PM 34.1119 -91.4083 54° Northeast 447 514 25,200 -2,050 Descending Memphis Center
Mon 01:03:07 PM 34.1817 -91.2936 51° Northeast 434 499 22,900 -2,300 Descending Memphis Center
Mon 01:04:07 PM 34.2556 -91.1839 54° Northeast 421 484 20,600 -2,350 Descending Memphis Center
Mon 01:05:07 PM 34.3231 -91.0714 51° Northeast 409 471 18,200 -2,100 Descending Memphis Center
Mon 01:06:07 PM 34.4008 -90.9564 53° Northeast 400 460 16,400 -1,850 Descending Memphis Center
Mon 01:07:07 PM 34.4639 -90.8558 54° Northeast 389 448 14,500 -1,950 Descending Memphis Center
Mon 01:08:07 PM 34.5247 -90.7528 52° Northeast 377 434 12,500 -1,950 Descending Memphis Center
Mon 01:09:07 PM 34.5856 -90.6572 52° Northeast 362 417 10,600 -1,250 Descending Memphis Center
Mon 01:10:07 PM 34.6442 -90.5667 59° Northeast 351 404 10,000 -622 Descending Memphis Center
Mon 01:11:51 PM 34.7233 -90.4075 64° Northeast 292 336 8,900 -792 Descending FAA TRACON SMA TRACON (SMA)
Mon 01:12:31 PM 34.7461 -90.3497 65° Northeast 273 314 8,100 -1,200 Descending FAA TRACON SMA TRACON (SMA)
Mon 01:13:11 PM 34.7667 -90.2972 65° Northeast 269 310 7,300 -1,350 Descending FAA TRACON SMA TRACON (SMA)
Mon 01:13:51 PM 34.7869 -90.2433 75° East 262 302 6,300 -1,575 Descending FAA TRACON SMA TRACON (SMA)
Mon 01:14:31 PM 34.7994 -90.1883 76° East 247 284 5,200 -1,575 Descending FAA TRACON SMA TRACON (SMA)
Mon 01:15:11 PM 34.8119 -90.1286 77° East 261 300 4,200 -900 Descending FAA TRACON SMA TRACON (SMA)
Mon 01:15:51 PM 34.8231 -90.0711 65° Northeast 246 283 4,000 -225 Descending FAA TRACON SMA TRACON (SMA)
Mon 01:16:31 PM 34.8386 -90.0300 29° Northeast 200 230 3,900 -750 Descending FAA TRACON SMA TRACON (SMA)
Mon 01:17:11 PM 34.8653 -90.0117 30° Northeast 180 207 3,000 -1,215 Descending FAA TRACON SMA TRACON (SMA)
Mon 01:17:50 PM 34.8953 -89.9906 North 179 206 2,300 -750 Descending FAA TRACON SMA TRACON (SMA)
Mon 01:18:31 PM 34.9286 -89.9844 358° North 179 206 2,000 -375 Descending FAA TRACON SMA TRACON (SMA)
Mon 01:19:10 PM 34.9558 -89.9856 359° North 163 188 1,800 -600 Descending FAA TRACON SMA TRACON (SMA)
Mon 01:19:51 PM 34.9828 -89.9861 358° North 145 167 1,200 -825 Descending FAA TRACON SMA TRACON (SMA)
Mon 01:20:30 PM 35.0083 -89.9869 360° North 134 154 700 -525 Descending FAA TRACON SMA TRACON (SMA)
Mon 01:21:11 PM 35.0183 -89.9869 360° North 135 155 500 -293 Descending FAA TRACON SMA TRACON (SMA)

Login

Don't have an account? Register now (free) for customized features, flight alerts, and more!